Ellen S Bouchard — WRA5918 — position and weather

sailwx.info

Track history (hours):
 
Tides and Currents Weather Stations Pressure Air Temp Water Temp Dewpoint Dewpoint Depression Visibility Wind Speed Wind Dir Waves Ship Positions

Ellen S Bouchard

Owner: BOUCHARD TRANSPORTATION CO, MELVILLE, NY. More information available from US FCC via Universal Licensing System and Coast Guard Vessel Documentation Center.

Last reported at 2017-Nov-19 18:22 UTC. Time now 2017-Nov-22 07:32 UTC.
Position N 40°48' W 073°47'.

Length 148 m; draft 5 m.

Type: Towing. MMSI: 367006570.

Date/timePositionNaut miles runAvg speedWind from/ knotsBaromVisibWave heightAir tempDewpointWater temp
2017-Nov-19 18:22N 40°48' W 073°47'0 0.0
2017-Nov-19 16:42N 40°48' W 073°47'1 0.1
2017-Nov-19 04:38N 40°48' W 073°48'1 6.0
2017-Nov-19 04:28N 40°48' W 073°49'3 6.6
2017-Nov-19 04:00N 40°48' W 073°53'3 4.9
2017-Nov-19 03:29N 40°47' W 073°56'3 5.3
2017-Nov-19 03:00N 40°45' W 073°58'3 5.1
2017-Nov-19 02:30N 40°42' W 073°59'3 6.8
2017-Nov-19 02:00N 40°40' W 074°02'3 5.8
2017-Nov-19 01:30N 40°37' W 074°03'0 0.6
2017-Nov-19 01:00N 40°37' W 074°03'0 0.9
2017-Nov-19 00:30N 40°37' W 074°03'1 1.9
2017-Nov-19 00:00N 40°38' W 074°04'2 3.8
2017-Nov-18 23:30N 40°39' W 074°06'3 5.2
2017-Nov-18 23:00N 40°39' W 074°09'2 4.9
2017-Nov-18 22:30N 40°37' W 074°12'1 1.0
2017-Nov-18 21:00N 40°36' W 074°12'4 7.3
2017-Nov-18 20:30N 40°39' W 074°09'1 1.3
2017-Nov-18 19:39N 40°39' W 074°07'0 0.0
2017-Nov-18 19:26N 40°39' W 074°07'0 0.0
2017-Nov-18 19:00N 40°39' W 074°07'0 0.0
2017-Nov-18 18:30N 40°39' W 074°07'0 0.3
2017-Nov-18 18:00N 40°39' W 074°07'0 0.2
2017-Nov-18 17:29N 40°39' W 074°07'0 0.0
2017-Nov-18 17:00N 40°39' W 074°07'0 0.0
2017-Nov-18 16:30N 40°39' W 074°07'0 0.0
2017-Nov-18 16:00N 40°39' W 074°07'0 0.0
2017-Nov-18 15:30N 40°39' W 074°07'0 0.0
2017-Nov-18 15:00N 40°39' W 074°07'0 0.0
2017-Nov-18 14:29N 40°39' W 074°07'0 0.0
2017-Nov-18 14:00N 40°39' W 074°07'0 0.0
2017-Nov-18 13:30N 40°39' W 074°07'0 0.5
2017-Nov-18 12:59N 40°39' W 074°07'1 2.9
2017-Nov-18 12:30N 40°39' W 074°05'2 3.1
2017-Nov-18 12:00N 40°39' W 074°07'0 0.1
2017-Nov-18 11:30N 40°39' W 074°07'0 0.0
2017-Nov-18 11:00N 40°39' W 074°07'0 0.0
2017-Nov-18 10:29N 40°39' W 074°07'0 0.0
2017-Nov-18 10:00N 40°39' W 074°07'0 0.0
2017-Nov-18 09:29N 40°39' W 074°07'0 0.0
2017-Nov-18 09:00N 40°39' W 074°07'0 0.0
2017-Nov-18 08:30N 40°39' W 074°07'0 0.6
2017-Nov-18 08:00N 40°39' W 074°07'1 2.1
2017-Nov-18 07:30N 40°39' W 074°05'0 0.0
2017-Nov-18 07:00N 40°39' W 074°05'0 0.0
2017-Nov-18 06:30N 40°39' W 074°05'0 0.0
2017-Nov-18 06:00N 40°39' W 074°05'0 0.0
2017-Nov-18 05:30N 40°39' W 074°05'0 0.0
2017-Nov-18 05:00N 40°39' W 074°05'0 0.0
2017-Nov-18 04:30N 40°39' W 074°05'0 0.1
2017-Nov-18 04:00N 40°39' W 074°05'5 9.0
2017-Nov-18 03:29N 40°38' W 074°12'3 3.0
2017-Nov-18 02:23N 40°35' W 074°12'0 0.5
2017-Nov-18 01:56N 40°35' W 074°12'3 6.9
2017-Nov-18 01:30N 40°38' W 074°12'3 5.1
2017-Nov-18 01:00N 40°39' W 074°08'2 3.3
2017-Nov-18 00:30N 40°39' W 074°06'3 6.6
2017-Nov-18 00:00N 40°37' W 074°03'2 4.5
2017-Nov-17 23:30N 40°35' W 074°01'0 0.1
2017-Nov-17 23:00N 40°35' W 074°01'0 0.0
2017-Nov-17 22:30N 40°35' W 074°01'0 0.0
2017-Nov-17 22:00N 40°35' W 074°01'0 0.1
2017-Nov-17 21:30N 40°35' W 074°01'0 0.1
2017-Nov-17 21:00N 40°35' W 074°01'0 0.1
2017-Nov-17 20:30N 40°35' W 074°01'0 0.0
2017-Nov-17 20:00N 40°35' W 074°01'0 0.0
2017-Nov-17 19:30N 40°35' W 074°01'0 0.0
2017-Nov-17 19:00N 40°35' W 074°01'0 0.0
2017-Nov-17 18:30N 40°35' W 074°01'0 0.0
2017-Nov-17 18:00N 40°35' W 074°01'0 0.0
2017-Nov-17 17:30N 40°35' W 074°01'0 0.0
2017-Nov-17 17:00N 40°35' W 074°01'0 0.0
2017-Nov-17 16:30N 40°35' W 074°01'0 0.0
2017-Nov-17 16:00N 40°35' W 074°01'0 0.0
2017-Nov-17 15:30N 40°35' W 074°01'0 0.0
2017-Nov-17 15:00N 40°35' W 074°01'0 0.0
2017-Nov-17 14:29N 40°35' W 074°01'0 0.0
2017-Nov-17 13:59N 40°35' W 074°01'0 0.0
2017-Nov-17 13:29N 40°35' W 074°01'0 0.0
2017-Nov-17 13:00N 40°35' W 074°01'0 0.1
2017-Nov-17 12:30N 40°35' W 074°01'0 0.0
2017-Nov-17 12:00N 40°35' W 074°01'0 0.0
2017-Nov-17 11:30N 40°35' W 074°01'0 0.0
2017-Nov-17 11:00N 40°35' W 074°01'0 0.0
2017-Nov-17 10:30N 40°35' W 074°01'0 0.1
2017-Nov-17 10:00N 40°35' W 074°01'0 0.0
2017-Nov-17 09:30N 40°35' W 074°01'0 0.0
2017-Nov-17 09:00N 40°35' W 074°01'0 0.0
2017-Nov-17 08:30N 40°35' W 074°01'0 0.0
2017-Nov-17 08:00N 40°35' W 074°01'0 0.0
2017-Nov-17 07:30N 40°35' W 074°01'0 0.1
2017-Nov-17 07:00N 40°35' W 074°01'0 0.0
2017-Nov-17 06:30N 40°35' W 074°01'0 0.0
2017-Nov-17 06:00N 40°35' W 074°01'0 0.0
2017-Nov-17 05:30N 40°35' W 074°01'0 0.0
2017-Nov-17 05:00N 40°35' W 074°01'0 0.0
2017-Nov-17 04:30N 40°35' W 074°01'0 0.0
2017-Nov-17 04:00N 40°35' W 074°01'0 0.1
2017-Nov-17 03:30N 40°35' W 074°01'0 0.0
2017-Nov-17 03:00N 40°35' W 074°01'0 0.0
2017-Nov-17 02:30N 40°35' W 074°01'0 0.0
2017-Nov-17 02:00N 40°35' W 074°01'0 0.0
2017-Nov-17 01:30N 40°35' W 074°01'0 0.0
2017-Nov-17 01:00N 40°35' W 074°01'0 0.0
2017-Nov-17 00:30N 40°35' W 074°01'0 0.0
2017-Nov-17 00:00N 40°35' W 074°01'0 0.0
2017-Nov-16 23:30N 40°35' W 074°01'0 0.0
2017-Nov-16 22:59N 40°35' W 074°01'0 0.0
2017-Nov-16 22:30N 40°35' W 074°01'0 0.0
2017-Nov-16 22:00N 40°35' W 074°01'0 0.0
2017-Nov-16 21:30N 40°35' W 074°01'0 0.0
2017-Nov-16 21:00N 40°35' W 074°01'0 0.1
2017-Nov-16 20:30N 40°35' W 074°01'0 0.0
2017-Nov-16 20:00N 40°35' W 074°01'0 0.0
2017-Nov-16 19:30N 40°35' W 074°01'0 0.1
2017-Nov-16 19:00N 40°35' W 074°01'0 0.1
2017-Nov-16 18:30N 40°35' W 074°01'0 0.0
2017-Nov-16 17:59N 40°35' W 074°01'0 0.0
2017-Nov-16 17:30N 40°35' W 074°01'0 0.1
2017-Nov-16 17:00N 40°35' W 074°01'0 0.0
2017-Nov-16 16:25N 40°35' W 074°01'0 0.0
2017-Nov-16 16:00N 40°35' W 074°01'0 0.0
2017-Nov-16 15:30N 40°35' W 074°01'0 0.1
2017-Nov-16 15:00N 40°35' W 074°01'0 0.1
2017-Nov-16 14:28N 40°35' W 074°01'0 0.1
2017-Nov-16 14:00N 40°35' W 074°01'0 0.0
2017-Nov-16 13:30N 40°35' W 074°01'0 0.0
2017-Nov-16 13:00N 40°35' W 074°01'0 0.0
2017-Nov-16 12:30N 40°35' W 074°01'0 0.1
2017-Nov-16 12:00N 40°35' W 074°01'0 0.1
2017-Nov-16 11:30N 40°35' W 074°01'0 0.0
2017-Nov-16 10:55N 40°35' W 074°01'0 0.0
2017-Nov-16 10:29N 40°35' W 074°01'0 0.1
2017-Nov-16 10:00N 40°35' W 074°01'0 0.0
2017-Nov-16 09:30N 40°35' W 074°01'0 0.0
2017-Nov-16 09:00N 40°35' W 074°01'0 0.0
2017-Nov-16 08:30N 40°35' W 074°01'0 0.0
2017-Nov-16 08:00N 40°35' W 074°01'0 0.1
2017-Nov-16 07:30N 40°35' W 074°01'0 0.0
2017-Nov-16 07:00N 40°35' W 074°01'0 0.1
2017-Nov-16 06:30N 40°35' W 074°01'0 0.0
2017-Nov-16 06:00N 40°35' W 074°01'0 0.1
2017-Nov-16 05:30N 40°35' W 074°01'0 0.1
2017-Nov-16 05:00N 40°35' W 074°01'0 0.0
2017-Nov-16 04:30N 40°35' W 074°01'0 0.0
2017-Nov-16 04:00N 40°35' W 074°01'0 0.0
2017-Nov-16 03:30N 40°35' W 074°01'0 0.0
2017-Nov-16 03:00N 40°35' W 074°01'0 0.1
2017-Nov-16 02:30N 40°35' W 074°01'0 0.0
2017-Nov-16 02:00N 40°35' W 074°01'0 0.0
2017-Nov-16 01:29N 40°35' W 074°01'0 0.0
2017-Nov-16 01:00N 40°35' W 074°01'0 0.0
2017-Nov-16 00:29N 40°35' W 074°01'0 0.0
2017-Nov-16 00:00N 40°35' W 074°01'0 0.1
2017-Nov-15 23:30N 40°35' W 074°01'0 0.0
2017-Nov-15 23:00N 40°35' W 074°01'0 0.1
2017-Nov-15 22:28N 40°35' W 074°01'0 0.1
2017-Nov-15 22:00N 40°35' W 074°01'0 0.1
2017-Nov-15 21:30N 40°35' W 074°01'0 0.0
2017-Nov-15 21:00N 40°35' W 074°01'0 0.1
2017-Nov-15 20:30N 40°35' W 074°01'0 0.0
2017-Nov-15 20:00N 40°35' W 074°01'0 0.1
2017-Nov-15 19:30N 40°35' W 074°01'0 0.1
2017-Nov-15 19:00N 40°35' W 074°01'0 0.0
2017-Nov-15 18:30N 40°35' W 074°01'0 0.0
2017-Nov-15 18:00N 40°35' W 074°01'0 0.0
2017-Nov-15 17:30N 40°35' W 074°01'0 0.0
2017-Nov-15 17:00N 40°35' W 074°01'0 0.0
2017-Nov-15 16:30N 40°35' W 074°01'0 0.0
2017-Nov-15 16:00N 40°35' W 074°01'0 0.0
2017-Nov-15 15:30N 40°35' W 074°01'0 0.0
2017-Nov-15 14:58N 40°35' W 074°01'0 0.1
2017-Nov-15 14:30N 40°35' W 074°01'0 0.0
2017-Nov-15 14:00N 40°35' W 074°01'0 0.0
2017-Nov-15 13:23N 40°35' W 074°01'0 0.0
2017-Nov-15 13:00N 40°35' W 074°01'0 0.1
2017-Nov-15 12:30N 40°35' W 074°01'0 0.0
2017-Nov-15 12:00N 40°35' W 074°01'0 0.0
2017-Nov-15 11:30N 40°35' W 074°01'0 0.0
2017-Nov-15 11:00N 40°35' W 074°01'0 0.0
2017-Nov-15 10:30N 40°35' W 074°01'0 0.0
2017-Nov-15 10:00N 40°35' W 074°01'0 0.1
2017-Nov-15 09:30N 40°35' W 074°01'0 0.2
2017-Nov-15 09:00N 40°35' W 074°01'0 0.1
2017-Nov-15 08:30N 40°35' W 074°01'0 0.1
2017-Nov-15 08:00N 40°35' W 074°01'0 0.2
2017-Nov-15 07:30N 40°35' W 074°01'0 0.3
2017-Nov-15 07:00N 40°35' W 074°01'0 0.1
2017-Nov-15 06:30N 40°35' W 074°01'0 0.0
2017-Nov-15 06:00N 40°35' W 074°01'0 0.0
2017-Nov-15 05:30N 40°35' W 074°01'0 0.0
2017-Nov-15 05:00N 40°35' W 074°01'0 0.0
2017-Nov-15 04:30N 40°35' W 074°01'0 0.0
2017-Nov-15 04:00N 40°35' W 074°01'0 0.0
2017-Nov-15 03:30N 40°35' W 074°01'0 0.0
2017-Nov-15 03:00N 40°35' W 074°01'0 0.0
2017-Nov-15 02:29N 40°35' W 074°01'0 0.0
2017-Nov-15 02:00N 40°35' W 074°01'0 0.0
2017-Nov-15 01:30N 40°35' W 074°01'0 0.0
2017-Nov-15 01:00N 40°35' W 074°01'0 0.0
2017-Nov-15 00:30N 40°35' W 074°01'0 0.0
2017-Nov-15 00:00N 40°35' W 074°01'0 0.0
2017-Nov-14 23:30N 40°35' W 074°01'0 0.1
2017-Nov-14 23:00N 40°35' W 074°01'0 0.1
2017-Nov-14 22:30N 40°35' W 074°01'0 0.2
2017-Nov-14 22:00N 40°35' W 074°01'0 0.1
2017-Nov-14 21:30N 40°35' W 074°01'0 0.0
2017-Nov-14 21:00N 40°35' W 074°01'0 0.1
2017-Nov-14 20:30N 40°35' W 074°01'0 0.1
2017-Nov-14 20:00N 40°35' W 074°01'0 0.0
2017-Nov-14 19:29N 40°35' W 074°01'0 0.1
2017-Nov-14 19:00N 40°35' W 074°01'0 0.1
2017-Nov-14 18:30N 40°35' W 074°01'0 0.0
2017-Nov-14 18:00N 40°35' W 074°01'0 0.1
2017-Nov-14 17:30N 40°35' W 074°01'0 0.0
2017-Nov-14 16:58N 40°35' W 074°01'0 0.0
2017-Nov-14 16:30N 40°35' W 074°01'0 0.0
2017-Nov-14 16:00N 40°35' W 074°01'0 0.0
2017-Nov-14 15:30N 40°35' W 074°01'0 0.0
2017-Nov-14 15:00N 40°35' W 074°01'0 0.0
2017-Nov-14 14:30N 40°35' W 074°01'0 0.0
2017-Nov-14 13:56N 40°35' W 074°01'0 0.0
2017-Nov-14 13:29N 40°35' W 074°01'0 0.0
2017-Nov-14 13:00N 40°35' W 074°01'0 0.0
2017-Nov-14 12:30N 40°35' W 074°01'0 0.0
2017-Nov-14 12:00N 40°35' W 074°01'0 0.0
2017-Nov-14 11:30N 40°35' W 074°01'0 0.0
2017-Nov-14 11:00N 40°35' W 074°01'0 0.0
2017-Nov-14 10:28N 40°35' W 074°01'0 0.1
2017-Nov-14 10:00N 40°35' W 074°01'0 0.0
2017-Nov-14 09:30N 40°35' W 074°01'0 0.0
2017-Nov-14 09:00N 40°35' W 074°01'0 0.1
2017-Nov-14 08:30N 40°35' W 074°01'0 0.1
2017-Nov-14 08:00N 40°35' W 074°01'0 0.1
2017-Nov-14 07:30N 40°35' W 074°01'0 0.1
2017-Nov-14 07:00N 40°35' W 074°01'0 0.2
2017-Nov-14 06:30N 40°35' W 074°01'0 0.1
2017-Nov-14 06:00N 40°35' W 074°01'0 0.0
2017-Nov-14 05:30N 40°35' W 074°01'0 0.0
2017-Nov-14 05:00N 40°35' W 074°01'0 0.0
2017-Nov-14 04:30N 40°35' W 074°01'0 0.0
2017-Nov-14 04:00N 40°35' W 074°01'0 0.0
2017-Nov-14 03:30N 40°35' W 074°01'0 0.0
2017-Nov-14 02:59N 40°35' W 074°01'0 0.0
2017-Nov-14 02:30N 40°35' W 074°01'0 0.0
2017-Nov-14 02:00N 40°35' W 074°01'0 0.0
2017-Nov-14 01:30N 40°35' W 074°01'0 0.0
2017-Nov-14 01:00N 40°35' W 074°01'0 0.0
2017-Nov-14 00:30N 40°35' W 074°01'0 0.0
2017-Nov-14 00:00N 40°35' W 074°01'0 0.0
2017-Nov-13 23:30N 40°35' W 074°01'0 0.0
2017-Nov-13 23:00N 40°35' W 074°01'0 0.0
2017-Nov-13 22:30N 40°35' W 074°01'0 0.0
2017-Nov-13 22:00N 40°35' W 074°01'0 0.0
2017-Nov-13 01:59N 40°35' W 074°01'0 0.0
2017-Nov-13 01:30N 40°35' W 074°01'0 0.0
2017-Nov-13 01:00N 40°35' W 074°01'0 0.1
2017-Nov-13 00:30N 40°35' W 074°01'0 0.0
2017-Nov-13 00:00N 40°35' W 074°01'0 0.0
2017-Nov-12 23:29N 40°35' W 074°01'0 0.0
2017-Nov-12 23:00N 40°35' W 074°01'0 0.1
2017-Nov-12 22:30N 40°35' W 074°01'0 0.1
2017-Nov-12 22:00N 40°35' W 074°01'0 0.1
2017-Nov-12 21:30N 40°35' W 074°01'0 0.0
2017-Nov-12 21:00N 40°35' W 074°01'0 0.1
2017-Nov-12 20:30N 40°35' W 074°01'0 0.1
2017-Nov-12 20:00N 40°35' W 074°01'0 0.1
2017-Nov-12 19:30N 40°35' W 074°01'0 0.0
2017-Nov-12 19:00N 40°35' W 074°01'0 0.1
2017-Nov-12 18:30N 40°35' W 074°01'0 0.1
2017-Nov-12 17:59N 40°35' W 074°01'2 4.8
2017-Nov-12 17:30N 40°37' W 074°03'4 7.8
2017-Nov-12 17:00N 40°41' W 074°02'3 6.8
2017-Nov-12 16:30N 40°43' W 073°58'4 7.6
2017-Nov-12 15:59N 40°47' W 073°56'3 5.5
2017-Nov-12 15:30N 40°48' W 073°53'4 7.2
2017-Nov-12 14:55N 40°48' W 073°48'49 8.3
2017-Nov-12 09:00N 41°06' W 072°47'5 9.4
2017-Nov-12 08:30N 41°07' W 072°41'5 9.7
2017-Nov-12 08:00N 41°08' W 072°35'510.4
2017-Nov-12 07:30N 41°09' W 072°28'510.3
2017-Nov-12 07:00N 41°11' W 072°21'610.0
2017-Nov-12 06:24N 41°12' W 072°14'95 6.6
2017-Nov-11 16:01N 42°16' W 070°40'010.7
2017-Nov-11 16:00N 42°16' W 070°40'4 8.7
2017-Nov-11 15:30N 42°19' W 070°44'4 8.8
2017-Nov-11 15:00N 42°22' W 070°49'9 7.5
2017-Nov-11 13:49N 42°21' W 071°01'2 7.8
2017-Nov-11 13:30N 42°23' W 071°03'2 0.7
2017-Nov-11 11:20N 42°24' W 071°01'0 0.0
2017-Nov-11 11:00N 42°24' W 071°01'0 0.0
2017-Nov-11 10:30N 42°24' W 071°01'0 0.0
2017-Nov-11 09:31N 42°24' W 071°01'0 0.0
2017-Nov-11 09:18N 42°24' W 071°01'0 0.0
2017-Nov-11 09:00N 42°24' W 071°01'0 0.0
2017-Nov-11 08:30N 42°24' W 071°01'0 0.0
2017-Nov-11 08:00N 42°24' W 071°01'0 0.0
2017-Nov-11 07:30N 42°24' W 071°01'0 0.0
2017-Nov-11 04:54N 42°24' W 071°01'0 0.0
2017-Nov-11 03:18N 42°24' W 071°01'0 0.0
2017-Nov-11 02:52N 42°24' W 071°01'0 0.0
2017-Nov-10 22:15N 42°24' W 071°01'0 0.0
2017-Nov-10 22:01N 42°24' W 071°01'0 0.0
2017-Nov-10 19:25N 42°24' W 071°01'0 0.0
2017-Nov-10 18:58N 42°24' W 071°01'0 0.0
2017-Nov-10 17:27N 42°24' W 071°01'1 0.5
2017-Nov-10 14:49N 42°23' W 071°03'0 0.0
2017-Nov-10 14:14N 42°23' W 071°03'0 0.0
2017-Nov-10 13:46N 42°23' W 071°03'0 0.0
2017-Nov-10 13:21N 42°23' W 071°03'0 0.0
2017-Nov-10 12:56N 42°23' W 071°03'0 0.0
2017-Nov-10 12:23N 42°23' W 071°03'0 0.0
2017-Nov-10 11:45N 42°23' W 071°03'0 0.0
2017-Nov-10 11:19N 42°23' W 071°03'0 0.0
2017-Nov-10 11:00N 42°23' W 071°03'0 0.0
2017-Nov-10 10:21N 42°23' W 071°03'0 0.0
2017-Nov-10 03:26N 42°23' W 071°03'0 0.0
2017-Nov-09 21:19N 42°23' W 071°03'1 3.1
2017-Nov-09 20:52N 42°24' W 071°01'0 0.1
2017-Nov-09 20:23N 42°24' W 071°01'1 1.3
2017-Nov-09 19:53N 42°23' W 071°02'1 2.8
2017-Nov-09 19:30N 42°22' W 071°03'4 5.3
2017-Nov-09 18:44N 42°20' W 070°58'  
Track history (hours):
 
Tides and Currents Weather Stations Pressure Air Temp Water Temp Dewpoint Dewpoint Depression Visibility Wind Speed Wind Dir Waves Ship Positions

Ellen S Bouchard

Owner: BOUCHARD TRANSPORTATION CO, MELVILLE, NY. More information available from US FCC via Universal Licensing System and Coast Guard Vessel Documentation Center.

Last reported at 2017-Nov-19 18:22 UTC. Time now 2017-Nov-22 07:32 UTC.
Position N 40°48' W 073°47'.

Length 148 m; draft 5 m.

Type: Towing. MMSI: 367006570.

Date/timePositionNaut miles runAvg speedWind from/ knotsBaromVisibWave heightAir tempDewpointWater temp
2017-Nov-19 18:22N 40°48' W 073°47'0 0.0
2017-Nov-19 16:42N 40°48' W 073°47'1 0.1
2017-Nov-19 04:38N 40°48' W 073°48'1 6.0
2017-Nov-19 04:28N 40°48' W 073°49'3 6.6
2017-Nov-19 04:00N 40°48' W 073°53'3 4.9
2017-Nov-19 03:29N 40°47' W 073°56'3 5.3
2017-Nov-19 03:00N 40°45' W 073°58'3 5.1
2017-Nov-19 02:30N 40°42' W 073°59'3 6.8
2017-Nov-19 02:00N 40°40' W 074°02'3 5.8
2017-Nov-19 01:30N 40°37' W 074°03'0 0.6
2017-Nov-19 01:00N 40°37' W 074°03'0 0.9
2017-Nov-19 00:30N 40°37' W 074°03'1 1.9
2017-Nov-19 00:00N 40°38' W 074°04'2 3.8
2017-Nov-18 23:30N 40°39' W 074°06'3 5.2
2017-Nov-18 23:00N 40°39' W 074°09'2 4.9
2017-Nov-18 22:30N 40°37' W 074°12'1 1.0
2017-Nov-18 21:00N 40°36' W 074°12'4 7.3
2017-Nov-18 20:30N 40°39' W 074°09'1 1.3
2017-Nov-18 19:39N 40°39' W 074°07'0 0.0
2017-Nov-18 19:26N 40°39' W 074°07'0 0.0
2017-Nov-18 19:00N 40°39' W 074°07'0 0.0
2017-Nov-18 18:30N 40°39' W 074°07'0 0.3
2017-Nov-18 18:00N 40°39' W 074°07'0 0.2
2017-Nov-18 17:29N 40°39' W 074°07'0 0.0
2017-Nov-18 17:00N 40°39' W 074°07'0 0.0
2017-Nov-18 16:30N 40°39' W 074°07'0 0.0
2017-Nov-18 16:00N 40°39' W 074°07'0 0.0
2017-Nov-18 15:30N 40°39' W 074°07'0 0.0
2017-Nov-18 15:00N 40°39' W 074°07'0 0.0
2017-Nov-18 14:29N 40°39' W 074°07'0 0.0
2017-Nov-18 14:00N 40°39' W 074°07'0 0.0
2017-Nov-18 13:30N 40°39' W 074°07'0 0.5
2017-Nov-18 12:59N 40°39' W 074°07'1 2.9
2017-Nov-18 12:30N 40°39' W 074°05'2 3.1
2017-Nov-18 12:00N 40°39' W 074°07'0 0.1
2017-Nov-18 11:30N 40°39' W 074°07'0 0.0
2017-Nov-18 11:00N 40°39' W 074°07'0 0.0
2017-Nov-18 10:29N 40°39' W 074°07'0 0.0
2017-Nov-18 10:00N 40°39' W 074°07'0 0.0
2017-Nov-18 09:29N 40°39' W 074°07'0 0.0
2017-Nov-18 09:00N 40°39' W 074°07'0 0.0
2017-Nov-18 08:30N 40°39' W 074°07'0 0.6
2017-Nov-18 08:00N 40°39' W 074°07'1 2.1
2017-Nov-18 07:30N 40°39' W 074°05'0 0.0
2017-Nov-18 07:00N 40°39' W 074°05'0 0.0
2017-Nov-18 06:30N 40°39' W 074°05'0 0.0
2017-Nov-18 06:00N 40°39' W 074°05'0 0.0
2017-Nov-18 05:30N 40°39' W 074°05'0 0.0
2017-Nov-18 05:00N 40°39' W 074°05'0 0.0
2017-Nov-18 04:30N 40°39' W 074°05'0 0.1
2017-Nov-18 04:00N 40°39' W 074°05'5 9.0
2017-Nov-18 03:29N 40°38' W 074°12'3 3.0
2017-Nov-18 02:23N 40°35' W 074°12'0 0.5
2017-Nov-18 01:56N 40°35' W 074°12'3 6.9
2017-Nov-18 01:30N 40°38' W 074°12'3 5.1
2017-Nov-18 01:00N 40°39' W 074°08'2 3.3
2017-Nov-18 00:30N 40°39' W 074°06'3 6.6
2017-Nov-18 00:00N 40°37' W 074°03'2 4.5
2017-Nov-17 23:30N 40°35' W 074°01'0 0.1
2017-Nov-17 23:00N 40°35' W 074°01'0 0.0
2017-Nov-17 22:30N 40°35' W 074°01'0 0.0
2017-Nov-17 22:00N 40°35' W 074°01'0 0.1
2017-Nov-17 21:30N 40°35' W 074°01'0 0.1
2017-Nov-17 21:00N 40°35' W 074°01'0 0.1
2017-Nov-17 20:30N 40°35' W 074°01'0 0.0
2017-Nov-17 20:00N 40°35' W 074°01'0 0.0
2017-Nov-17 19:30N 40°35' W 074°01'0 0.0
2017-Nov-17 19:00N 40°35' W 074°01'0 0.0
2017-Nov-17 18:30N 40°35' W 074°01'0 0.0
2017-Nov-17 18:00N 40°35' W 074°01'0 0.0
2017-Nov-17 17:30N 40°35' W 074°01'0 0.0
2017-Nov-17 17:00N 40°35' W 074°01'0 0.0
2017-Nov-17 16:30N 40°35' W 074°01'0 0.0
2017-Nov-17 16:00N 40°35' W 074°01'0 0.0
2017-Nov-17 15:30N 40°35' W 074°01'0 0.0
2017-Nov-17 15:00N 40°35' W 074°01'0 0.0
2017-Nov-17 14:29N 40°35' W 074°01'0 0.0
2017-Nov-17 13:59N 40°35' W 074°01'0 0.0
2017-Nov-17 13:29N 40°35' W 074°01'0 0.0
2017-Nov-17 13:00N 40°35' W 074°01'0 0.1
2017-Nov-17 12:30N 40°35' W 074°01'0 0.0
2017-Nov-17 12:00N 40°35' W 074°01'0 0.0
2017-Nov-17 11:30N 40°35' W 074°01'0 0.0
2017-Nov-17 11:00N 40°35' W 074°01'0 0.0
2017-Nov-17 10:30N 40°35' W 074°01'0 0.1
2017-Nov-17 10:00N 40°35' W 074°01'0 0.0
2017-Nov-17 09:30N 40°35' W 074°01'0 0.0
2017-Nov-17 09:00N 40°35' W 074°01'0 0.0
2017-Nov-17 08:30N 40°35' W 074°01'0 0.0
2017-Nov-17 08:00N 40°35' W 074°01'0 0.0
2017-Nov-17 07:30N 40°35' W 074°01'0 0.1
2017-Nov-17 07:00N 40°35' W 074°01'0 0.0
2017-Nov-17 06:30N 40°35' W 074°01'0 0.0
2017-Nov-17 06:00N 40°35' W 074°01'0 0.0
2017-Nov-17 05:30N 40°35' W 074°01'0 0.0
2017-Nov-17 05:00N 40°35' W 074°01'0 0.0
2017-Nov-17 04:30N 40°35' W 074°01'0 0.0
2017-Nov-17 04:00N 40°35' W 074°01'0 0.1
2017-Nov-17 03:30N 40°35' W 074°01'0 0.0
2017-Nov-17 03:00N 40°35' W 074°01'0 0.0
2017-Nov-17 02:30N 40°35' W 074°01'0 0.0
2017-Nov-17 02:00N 40°35' W 074°01'0 0.0
2017-Nov-17 01:30N 40°35' W 074°01'0 0.0
2017-Nov-17 01:00N 40°35' W 074°01'0 0.0
2017-Nov-17 00:30N 40°35' W 074°01'0 0.0
2017-Nov-17 00:00N 40°35' W 074°01'0 0.0
2017-Nov-16 23:30N 40°35' W 074°01'0 0.0
2017-Nov-16 22:59N 40°35' W 074°01'0 0.0
2017-Nov-16 22:30N 40°35' W 074°01'0 0.0
2017-Nov-16 22:00N 40°35' W 074°01'0 0.0
2017-Nov-16 21:30N 40°35' W 074°01'0 0.0
2017-Nov-16 21:00N 40°35' W 074°01'0 0.1
2017-Nov-16 20:30N 40°35' W 074°01'0 0.0
2017-Nov-16 20:00N 40°35' W 074°01'0 0.0
2017-Nov-16 19:30N 40°35' W 074°01'0 0.1
2017-Nov-16 19:00N 40°35' W 074°01'0 0.1
2017-Nov-16 18:30N 40°35' W 074°01'0 0.0
2017-Nov-16 17:59N 40°35' W 074°01'0 0.0
2017-Nov-16 17:30N 40°35' W 074°01'0 0.1
2017-Nov-16 17:00N 40°35' W 074°01'0 0.0
2017-Nov-16 16:25N 40°35' W 074°01'0 0.0
2017-Nov-16 16:00N 40°35' W 074°01'0 0.0
2017-Nov-16 15:30N 40°35' W 074°01'0 0.1
2017-Nov-16 15:00N 40°35' W 074°01'0 0.1
2017-Nov-16 14:28N 40°35' W 074°01'0 0.1
2017-Nov-16 14:00N 40°35' W 074°01'0 0.0
2017-Nov-16 13:30N 40°35' W 074°01'0 0.0
2017-Nov-16 13:00N 40°35' W 074°01'0 0.0
2017-Nov-16 12:30N 40°35' W 074°01'0 0.1
2017-Nov-16 12:00N 40°35' W 074°01'0 0.1
2017-Nov-16 11:30N 40°35' W 074°01'0 0.0
2017-Nov-16 10:55N 40°35' W 074°01'0 0.0
2017-Nov-16 10:29N 40°35' W 074°01'0 0.1
2017-Nov-16 10:00N 40°35' W 074°01'0 0.0
2017-Nov-16 09:30N 40°35' W 074°01'0 0.0
2017-Nov-16 09:00N 40°35' W 074°01'0 0.0
2017-Nov-16 08:30N 40°35' W 074°01'0 0.0
2017-Nov-16 08:00N 40°35' W 074°01'0 0.1
2017-Nov-16 07:30N 40°35' W 074°01'0 0.0
2017-Nov-16 07:00N 40°35' W 074°01'0 0.1
2017-Nov-16 06:30N 40°35' W 074°01'0 0.0
2017-Nov-16 06:00N 40°35' W 074°01'0 0.1
2017-Nov-16 05:30N 40°35' W 074°01'0 0.1
2017-Nov-16 05:00N 40°35' W 074°01'0 0.0
2017-Nov-16 04:30N 40°35' W 074°01'0 0.0
2017-Nov-16 04:00N 40°35' W 074°01'0 0.0
2017-Nov-16 03:30N 40°35' W 074°01'0 0.0
2017-Nov-16 03:00N 40°35' W 074°01'0 0.1
2017-Nov-16 02:30N 40°35' W 074°01'0 0.0
2017-Nov-16 02:00N 40°35' W 074°01'0 0.0
2017-Nov-16 01:29N 40°35' W 074°01'0 0.0
2017-Nov-16 01:00N 40°35' W 074°01'0 0.0
2017-Nov-16 00:29N 40°35' W 074°01'0 0.0
2017-Nov-16 00:00N 40°35' W 074°01'0 0.1
2017-Nov-15 23:30N 40°35' W 074°01'0 0.0
2017-Nov-15 23:00N 40°35' W 074°01'0 0.1
2017-Nov-15 22:28N 40°35' W 074°01'0 0.1
2017-Nov-15 22:00N 40°35' W 074°01'0 0.1
2017-Nov-15 21:30N 40°35' W 074°01'0 0.0
2017-Nov-15 21:00N 40°35' W 074°01'0 0.1
2017-Nov-15 20:30N 40°35' W 074°01'0 0.0
2017-Nov-15 20:00N 40°35' W 074°01'0 0.1
2017-Nov-15 19:30N 40°35' W 074°01'0 0.1
2017-Nov-15 19:00N 40°35' W 074°01'0 0.0
2017-Nov-15 18:30N 40°35' W 074°01'0 0.0
2017-Nov-15 18:00N 40°35' W 074°01'0 0.0
2017-Nov-15 17:30N 40°35' W 074°01'0 0.0
2017-Nov-15 17:00N 40°35' W 074°01'0 0.0
2017-Nov-15 16:30N 40°35' W 074°01'0 0.0
2017-Nov-15 16:00N 40°35' W 074°01'0 0.0
2017-Nov-15 15:30N 40°35' W 074°01'0 0.0
2017-Nov-15 14:58N 40°35' W 074°01'0 0.1
2017-Nov-15 14:30N 40°35' W 074°01'0 0.0
2017-Nov-15 14:00N 40°35' W 074°01'0 0.0
2017-Nov-15 13:23N 40°35' W 074°01'0 0.0
2017-Nov-15 13:00N 40°35' W 074°01'0 0.1
2017-Nov-15 12:30N 40°35' W 074°01'0 0.0
2017-Nov-15 12:00N 40°35' W 074°01'0 0.0
2017-Nov-15 11:30N 40°35' W 074°01'0 0.0
2017-Nov-15 11:00N 40°35' W 074°01'0 0.0
2017-Nov-15 10:30N 40°35' W 074°01'0 0.0
2017-Nov-15 10:00N 40°35' W 074°01'0 0.1
2017-Nov-15 09:30N 40°35' W 074°01'0 0.2
2017-Nov-15 09:00N 40°35' W 074°01'0 0.1
2017-Nov-15 08:30N 40°35' W 074°01'0 0.1
2017-Nov-15 08:00N 40°35' W 074°01'0 0.2
2017-Nov-15 07:30N 40°35' W 074°01'0 0.3
2017-Nov-15 07:00N 40°35' W 074°01'0 0.1
2017-Nov-15 06:30N 40°35' W 074°01'0 0.0
2017-Nov-15 06:00N 40°35' W 074°01'0 0.0
2017-Nov-15 05:30N 40°35' W 074°01'0 0.0
2017-Nov-15 05:00N 40°35' W 074°01'0 0.0
2017-Nov-15 04:30N 40°35' W 074°01'0 0.0
2017-Nov-15 04:00N 40°35' W 074°01'0 0.0
2017-Nov-15 03:30N 40°35' W 074°01'0 0.0
2017-Nov-15 03:00N 40°35' W 074°01'0 0.0
2017-Nov-15 02:29N 40°35' W 074°01'0 0.0
2017-Nov-15 02:00N 40°35' W 074°01'0 0.0
2017-Nov-15 01:30N 40°35' W 074°01'0 0.0
2017-Nov-15 01:00N 40°35' W 074°01'0 0.0
2017-Nov-15 00:30N 40°35' W 074°01'0 0.0
2017-Nov-15 00:00N 40°35' W 074°01'0 0.0
2017-Nov-14 23:30N 40°35' W 074°01'0 0.1
2017-Nov-14 23:00N 40°35' W 074°01'0 0.1
2017-Nov-14 22:30N 40°35' W 074°01'0 0.2
2017-Nov-14 22:00N 40°35' W 074°01'0 0.1
2017-Nov-14 21:30N 40°35' W 074°01'0 0.0
2017-Nov-14 21:00N 40°35' W 074°01'0 0.1
2017-Nov-14 20:30N 40°35' W 074°01'0 0.1
2017-Nov-14 20:00N 40°35' W 074°01'0 0.0
2017-Nov-14 19:29N 40°35' W 074°01'0 0.1
2017-Nov-14 19:00N 40°35' W 074°01'0 0.1
2017-Nov-14 18:30N 40°35' W 074°01'0 0.0
2017-Nov-14 18:00N 40°35' W 074°01'0 0.1
2017-Nov-14 17:30N 40°35' W 074°01'0 0.0
2017-Nov-14 16:58N 40°35' W 074°01'0 0.0
2017-Nov-14 16:30N 40°35' W 074°01'0 0.0
2017-Nov-14 16:00N 40°35' W 074°01'0 0.0
2017-Nov-14 15:30N 40°35' W 074°01'0 0.0
2017-Nov-14 15:00N 40°35' W 074°01'0 0.0
2017-Nov-14 14:30N 40°35' W 074°01'0 0.0
2017-Nov-14 13:56N 40°35' W 074°01'0 0.0
2017-Nov-14 13:29N 40°35' W 074°01'0 0.0
2017-Nov-14 13:00N 40°35' W 074°01'0 0.0
2017-Nov-14 12:30N 40°35' W 074°01'0 0.0
2017-Nov-14 12:00N 40°35' W 074°01'0 0.0
2017-Nov-14 11:30N 40°35' W 074°01'0 0.0
2017-Nov-14 11:00N 40°35' W 074°01'0 0.0
2017-Nov-14 10:28N 40°35' W 074°01'0 0.1
2017-Nov-14 10:00N 40°35' W 074°01'0 0.0
2017-Nov-14 09:30N 40°35' W 074°01'0 0.0
2017-Nov-14 09:00N 40°35' W 074°01'0 0.1
2017-Nov-14 08:30N 40°35' W 074°01'0 0.1
2017-Nov-14 08:00N 40°35' W 074°01'0 0.1
2017-Nov-14 07:30N 40°35' W 074°01'0 0.1
2017-Nov-14 07:00N 40°35' W 074°01'0 0.2
2017-Nov-14 06:30N 40°35' W 074°01'0 0.1
2017-Nov-14 06:00N 40°35' W 074°01'0 0.0
2017-Nov-14 05:30N 40°35' W 074°01'0 0.0
2017-Nov-14 05:00N 40°35' W 074°01'0 0.0
2017-Nov-14 04:30N 40°35' W 074°01'0 0.0
2017-Nov-14 04:00N 40°35' W 074°01'0 0.0
2017-Nov-14 03:30N 40°35' W 074°01'0 0.0
2017-Nov-14 02:59N 40°35' W 074°01'0 0.0
2017-Nov-14 02:30N 40°35' W 074°01'0 0.0
2017-Nov-14 02:00N 40°35' W 074°01'0 0.0
2017-Nov-14 01:30N 40°35' W 074°01'0 0.0
2017-Nov-14 01:00N 40°35' W 074°01'0 0.0
2017-Nov-14 00:30N 40°35' W 074°01'0 0.0
2017-Nov-14 00:00N 40°35' W 074°01'0 0.0
2017-Nov-13 23:30N 40°35' W 074°01'0 0.0
2017-Nov-13 23:00N 40°35' W 074°01'0 0.0
2017-Nov-13 22:30N 40°35' W 074°01'0 0.0
2017-Nov-13 22:00N 40°35' W 074°01'0 0.0
2017-Nov-13 01:59N 40°35' W 074°01'0 0.0
2017-Nov-13 01:30N 40°35' W 074°01'0 0.0
2017-Nov-13 01:00N 40°35' W 074°01'0 0.1
2017-Nov-13 00:30N 40°35' W 074°01'0 0.0
2017-Nov-13 00:00N 40°35' W 074°01'0 0.0
2017-Nov-12 23:29N 40°35' W 074°01'0 0.0
2017-Nov-12 23:00N 40°35' W 074°01'0 0.1
2017-Nov-12 22:30N 40°35' W 074°01'0 0.1
2017-Nov-12 22:00N 40°35' W 074°01'0 0.1
2017-Nov-12 21:30N 40°35' W 074°01'0 0.0
2017-Nov-12 21:00N 40°35' W 074°01'0 0.1
2017-Nov-12 20:30N 40°35' W 074°01'0 0.1
2017-Nov-12 20:00N 40°35' W 074°01'0 0.1
2017-Nov-12 19:30N 40°35' W 074°01'0 0.0
2017-Nov-12 19:00N 40°35' W 074°01'0 0.1
2017-Nov-12 18:30N 40°35' W 074°01'0 0.1
2017-Nov-12 17:59N 40°35' W 074°01'2 4.8
2017-Nov-12 17:30N 40°37' W 074°03'4 7.8
2017-Nov-12 17:00N 40°41' W 074°02'3 6.8
2017-Nov-12 16:30N 40°43' W 073°58'4 7.6
2017-Nov-12 15:59N 40°47' W 073°56'3 5.5
2017-Nov-12 15:30N 40°48' W 073°53'4 7.2
2017-Nov-12 14:55N 40°48' W 073°48'49 8.3
2017-Nov-12 09:00N 41°06' W 072°47'5 9.4
2017-Nov-12 08:30N 41°07' W 072°41'5 9.7
2017-Nov-12 08:00N 41°08' W 072°35'510.4
2017-Nov-12 07:30N 41°09' W 072°28'510.3
2017-Nov-12 07:00N 41°11' W 072°21'610.0
2017-Nov-12 06:24N 41°12' W 072°14'95 6.6
2017-Nov-11 16:01N 42°16' W 070°40'010.7
2017-Nov-11 16:00N 42°16' W 070°40'4 8.7
2017-Nov-11 15:30N 42°19' W 070°44'4 8.8
2017-Nov-11 15:00N 42°22' W 070°49'9 7.5
2017-Nov-11 13:49N 42°21' W 071°01'2 7.8
2017-Nov-11 13:30N 42°23' W 071°03'2 0.7
2017-Nov-11 11:20N 42°24' W 071°01'0 0.0
2017-Nov-11 11:00N 42°24' W 071°01'0 0.0
2017-Nov-11 10:30N 42°24' W 071°01'0 0.0
2017-Nov-11 09:31N 42°24' W 071°01'0 0.0
2017-Nov-11 09:18N 42°24' W 071°01'0 0.0
2017-Nov-11 09:00N 42°24' W 071°01'0 0.0
2017-Nov-11 08:30N 42°24' W 071°01'0 0.0
2017-Nov-11 08:00N 42°24' W 071°01'0 0.0
2017-Nov-11 07:30N 42°24' W 071°01'0 0.0
2017-Nov-11 04:54N 42°24' W 071°01'0 0.0
2017-Nov-11 03:18N 42°24' W 071°01'0 0.0
2017-Nov-11 02:52N 42°24' W 071°01'0 0.0
2017-Nov-10 22:15N 42°24' W 071°01'0 0.0
2017-Nov-10 22:01N 42°24' W 071°01'0 0.0
2017-Nov-10 19:25N 42°24' W 071°01'0 0.0
2017-Nov-10 18:58N 42°24' W 071°01'0 0.0
2017-Nov-10 17:27N 42°24' W 071°01'1 0.5
2017-Nov-10 14:49N 42°23' W 071°03'0 0.0
2017-Nov-10 14:14N 42°23' W 071°03'0 0.0
2017-Nov-10 13:46N 42°23' W 071°03'0 0.0
2017-Nov-10 13:21N 42°23' W 071°03'0 0.0
2017-Nov-10 12:56N 42°23' W 071°03'0 0.0
2017-Nov-10 12:23N 42°23' W 071°03'0 0.0
2017-Nov-10 11:45N 42°23' W 071°03'0 0.0
2017-Nov-10 11:19N 42°23' W 071°03'0 0.0
2017-Nov-10 11:00N 42°23' W 071°03'0 0.0
2017-Nov-10 10:21N 42°23' W 071°03'0 0.0
2017-Nov-10 03:26N 42°23' W 071°03'0 0.0
2017-Nov-09 21:19N 42°23' W 071°03'1 3.1
2017-Nov-09 20:52N 42°24' W 071°01'0 0.1
2017-Nov-09 20:23N 42°24' W 071°01'1 1.3
2017-Nov-09 19:53N 42°23' W 071°02'1 2.8
2017-Nov-09 19:30N 42°22' W 071°03'4 5.3
2017-Nov-09 18:44N 42°20' W 070°58'  

Dump ship's entire track history